sensor_id;sensor_type;location;lat;lon;timestamp;P1;durP1;ratioP1;P2;durP2;ratioP2
54269;SDS011;40181;51.560;13.000;2023-05-07T00:01:18;4.30;;;3.08;;
54269;SDS011;40181;51.560;13.000;2023-05-07T00:03:47;4.38;;;3.40;;
54269;SDS011;40181;51.560;13.000;2023-05-07T00:06:16;4.93;;;2.95;;
54269;SDS011;40181;51.560;13.000;2023-05-07T00:08:45;3.40;;;2.60;;
54269;SDS011;40181;51.560;13.000;2023-05-07T00:11:17;3.45;;;2.47;;
54269;SDS011;40181;51.560;13.000;2023-05-07T00:13:47;4.40;;;2.80;;
54269;SDS011;40181;51.560;13.000;2023-05-07T00:16:16;2.72;;;2.13;;
54269;SDS011;40181;51.560;13.000;2023-05-07T00:18:45;3.42;;;2.20;;
54269;SDS011;40181;51.560;13.000;2023-05-07T00:21:15;4.00;;;2.75;;
54269;SDS011;40181;51.560;13.000;2023-05-07T00:23:44;3.22;;;2.00;;
54269;SDS011;40181;51.560;13.000;2023-05-07T00:26:13;4.60;;;3.08;;
54269;SDS011;40181;51.560;13.000;2023-05-07T00:28:45;4.53;;;3.22;;
54269;SDS011;40181;51.560;13.000;2023-05-07T00:31:14;4.35;;;2.95;;
54269;SDS011;40181;51.560;13.000;2023-05-07T00:33:43;3.55;;;2.88;;
54269;SDS011;40181;51.560;13.000;2023-05-07T00:36:12;4.07;;;3.05;;
54269;SDS011;40181;51.560;13.000;2023-05-07T00:38:41;4.15;;;2.42;;
54269;SDS011;40181;51.560;13.000;2023-05-07T00:41:10;4.70;;;3.20;;
54269;SDS011;40181;51.560;13.000;2023-05-07T00:43:42;4.97;;;2.88;;
54269;SDS011;40181;51.560;13.000;2023-05-07T00:46:12;4.03;;;3.22;;
54269;SDS011;40181;51.560;13.000;2023-05-07T00:48:42;5.72;;;4.03;;
54269;SDS011;40181;51.560;13.000;2023-05-07T00:51:11;4.38;;;3.05;;
54269;SDS011;40181;51.560;13.000;2023-05-07T00:53:40;4.38;;;3.17;;
54269;SDS011;40181;51.560;13.000;2023-05-07T00:56:10;5.55;;;4.00;;
54269;SDS011;40181;51.560;13.000;2023-05-07T00:58:43;8.85;;;3.90;;
54269;SDS011;40181;51.560;13.000;2023-05-07T01:01:12;5.28;;;3.55;;
54269;SDS011;40181;51.560;13.000;2023-05-07T01:03:42;5.30;;;3.92;;
54269;SDS011;40181;51.560;13.000;2023-05-07T01:06:11;15.93;;;3.83;;
54269;SDS011;40181;51.560;13.000;2023-05-07T01:11:10;6.90;;;3.63;;
54269;SDS011;40181;51.560;13.000;2023-05-07T01:13:40;5.55;;;3.60;;
54269;SDS011;40181;51.560;13.000;2023-05-07T01:16:15;4.30;;;3.33;;
54269;SDS011;40181;51.560;13.000;2023-05-07T01:18:45;4.95;;;3.78;;
54269;SDS011;40181;51.560;13.000;2023-05-07T01:21:15;8.15;;;3.85;;
54269;SDS011;40181;51.560;13.000;2023-05-07T01:23:48;4.75;;;4.00;;
54269;SDS011;40181;51.560;13.000;2023-05-07T01:26:18;4.93;;;3.78;;
54269;SDS011;40181;51.560;13.000;2023-05-07T01:28:48;10.95;;;4.88;;
54269;SDS011;40181;51.560;13.000;2023-05-07T01:31:18;6.95;;;4.90;;
54269;SDS011;40181;51.560;13.000;2023-05-07T01:33:47;4.28;;;3.50;;
54269;SDS011;40181;51.560;13.000;2023-05-07T01:36:18;6.90;;;4.82;;
54269;SDS011;40181;51.560;13.000;2023-05-07T01:38:54;9.90;;;5.45;;
54269;SDS011;40181;51.560;13.000;2023-05-07T01:41:24;9.07;;;4.90;;
54269;SDS011;40181;51.560;13.000;2023-05-07T01:43:54;5.80;;;4.72;;
54269;SDS011;40181;51.560;13.000;2023-05-07T01:46:26;9.60;;;4.18;;
54269;SDS011;40181;51.560;13.000;2023-05-07T01:48:55;5.55;;;4.15;;
54269;SDS011;40181;51.560;13.000;2023-05-07T01:51:25;8.18;;;4.63;;
54269;SDS011;40181;51.560;13.000;2023-05-07T01:53:57;6.23;;;4.33;;
54269;SDS011;40181;51.560;13.000;2023-05-07T01:56:26;6.38;;;5.22;;
54269;SDS011;40181;51.560;13.000;2023-05-07T01:58:55;6.85;;;4.97;;
54269;SDS011;40181;51.560;13.000;2023-05-07T02:01:24;7.38;;;5.00;;
54269;SDS011;40181;51.560;13.000;2023-05-07T02:03:53;5.35;;;4.22;;
54269;SDS011;40181;51.560;13.000;2023-05-07T02:06:22;5.90;;;4.20;;
54269;SDS011;40181;51.560;13.000;2023-05-07T02:08:52;7.35;;;5.57;;
54269;SDS011;40181;51.560;13.000;2023-05-07T02:11:23;9.95;;;5.32;;
54269;SDS011;40181;51.560;13.000;2023-05-07T02:13:52;7.80;;;5.53;;
54269;SDS011;40181;51.560;13.000;2023-05-07T02:16:21;7.03;;;6.32;;
54269;SDS011;40181;51.560;13.000;2023-05-07T02:18:51;6.97;;;5.50;;
54269;SDS011;40181;51.560;13.000;2023-05-07T02:21:20;8.00;;;5.13;;
54269;SDS011;40181;51.560;13.000;2023-05-07T02:23:49;6.32;;;5.40;;
54269;SDS011;40181;51.560;13.000;2023-05-07T02:26:18;11.70;;;5.35;;
54269;SDS011;40181;51.560;13.000;2023-05-07T02:28:50;7.38;;;4.70;;
54269;SDS011;40181;51.560;13.000;2023-05-07T02:31:19;6.30;;;4.85;;
54269;SDS011;40181;51.560;13.000;2023-05-07T02:33:48;6.85;;;5.00;;
54269;SDS011;40181;51.560;13.000;2023-05-07T02:36:17;8.77;;;5.57;;
54269;SDS011;40181;51.560;13.000;2023-05-07T02:38:46;6.55;;;5.28;;
54269;SDS011;40181;51.560;13.000;2023-05-07T02:41:15;5.70;;;4.55;;
54269;SDS011;40181;51.560;13.000;2023-05-07T02:43:45;8.17;;;5.30;;
54269;SDS011;40181;51.560;13.000;2023-05-07T02:46:16;7.63;;;5.32;;
54269;SDS011;40181;51.560;13.000;2023-05-07T02:48:45;4.97;;;3.92;;
54269;SDS011;40181;51.560;13.000;2023-05-07T02:51:14;6.68;;;4.57;;
54269;SDS011;40181;51.560;13.000;2023-05-07T02:53:45;4.93;;;4.07;;
54269;SDS011;40181;51.560;13.000;2023-05-07T02:56:14;5.70;;;3.97;;
54269;SDS011;40181;51.560;13.000;2023-05-07T02:58:43;6.30;;;4.72;;
54269;SDS011;40181;51.560;13.000;2023-05-07T03:01:12;8.02;;;5.45;;
54269;SDS011;40181;51.560;13.000;2023-05-07T03:03:44;6.40;;;4.47;;
54269;SDS011;40181;51.560;13.000;2023-05-07T03:06:13;7.80;;;4.28;;
54269;SDS011;40181;51.560;13.000;2023-05-07T03:08:43;9.32;;;4.55;;
54269;SDS011;40181;51.560;13.000;2023-05-07T03:11:12;8.60;;;4.40;;
54269;SDS011;40181;51.560;13.000;2023-05-07T03:13:41;4.88;;;3.50;;
54269;SDS011;40181;51.560;13.000;2023-05-07T03:16:10;6.85;;;4.60;;
54269;SDS011;40181;51.560;13.000;2023-05-07T03:18:39;3.95;;;3.50;;
54269;SDS011;40181;51.560;13.000;2023-05-07T03:21:11;7.60;;;4.20;;
54269;SDS011;40181;51.560;13.000;2023-05-07T03:23:40;4.32;;;3.17;;
54269;SDS011;40181;51.560;13.000;2023-05-07T03:26:09;4.20;;;3.22;;
54269;SDS011;40181;51.560;13.000;2023-05-07T03:28:38;4.80;;;3.08;;
54269;SDS011;40181;51.560;13.000;2023-05-07T03:31:07;2.92;;;2.60;;
54269;SDS011;40181;51.560;13.000;2023-05-07T03:33:38;3.63;;;2.53;;
54269;SDS011;40181;51.560;13.000;2023-05-07T03:36:21;3.35;;;2.90;;
54269;SDS011;40181;51.560;13.000;2023-05-07T03:38:51;4.47;;;3.25;;
54269;SDS011;40181;51.560;13.000;2023-05-07T03:41:20;4.05;;;3.00;;
54269;SDS011;40181;51.560;13.000;2023-05-07T03:43:50;3.20;;;2.42;;
54269;SDS011;40181;51.560;13.000;2023-05-07T03:46:19;5.13;;;2.53;;
54269;SDS011;40181;51.560;13.000;2023-05-07T03:48:51;3.28;;;2.58;;
54269;SDS011;40181;51.560;13.000;2023-05-07T03:51:22;4.15;;;2.50;;
54269;SDS011;40181;51.560;13.000;2023-05-07T03:53:51;3.42;;;2.65;;
54269;SDS011;40181;51.560;13.000;2023-05-07T03:56:22;3.15;;;2.85;;
54269;SDS011;40181;51.560;13.000;2023-05-07T03:58:51;5.10;;;3.45;;
54269;SDS011;40181;51.560;13.000;2023-05-07T04:01:20;4.18;;;2.45;;
54269;SDS011;40181;51.560;13.000;2023-05-07T04:03:49;3.95;;;2.60;;
54269;SDS011;40181;51.560;13.000;2023-05-07T04:06:18;7.53;;;2.42;;
54269;SDS011;40181;51.560;13.000;2023-05-07T04:08:50;4.45;;;2.47;;
54269;SDS011;40181;51.560;13.000;2023-05-07T04:11:19;4.65;;;3.05;;
54269;SDS011;40181;51.560;13.000;2023-05-07T04:13:48;3.85;;;2.75;;
54269;SDS011;40181;51.560;13.000;2023-05-07T04:16:17;4.72;;;2.17;;
54269;SDS011;40181;51.560;13.000;2023-05-07T04:18:46;4.97;;;3.38;;
54269;SDS011;40181;51.560;13.000;2023-05-07T04:21:15;3.83;;;2.78;;
54269;SDS011;40181;51.560;13.000;2023-05-07T04:23:49;3.22;;;2.63;;
54269;SDS011;40181;51.560;13.000;2023-05-07T04:26:18;5.40;;;3.38;;
54269;SDS011;40181;51.560;13.000;2023-05-07T04:28:49;6.20;;;3.35;;
54269;SDS011;40181;51.560;13.000;2023-05-07T04:31:18;3.60;;;2.38;;
54269;SDS011;40181;51.560;13.000;2023-05-07T04:33:47;2.60;;;2.30;;
54269;SDS011;40181;51.560;13.000;2023-05-07T04:36:16;4.43;;;3.33;;
54269;SDS011;40181;51.560;13.000;2023-05-07T04:38:46;6.03;;;3.20;;
54269;SDS011;40181;51.560;13.000;2023-05-07T04:41:18;4.43;;;2.67;;
54269;SDS011;40181;51.560;13.000;2023-05-07T04:43:47;3.03;;;2.42;;
54269;SDS011;40181;51.560;13.000;2023-05-07T04:46:16;3.45;;;2.65;;
54269;SDS011;40181;51.560;13.000;2023-05-07T04:48:45;3.22;;;2.50;;
54269;SDS011;40181;51.560;13.000;2023-05-07T04:51:14;3.35;;;2.38;;
54269;SDS011;40181;51.560;13.000;2023-05-07T04:53:43;3.40;;;2.60;;
54269;SDS011;40181;51.560;13.000;2023-05-07T04:56:15;3.22;;;2.35;;
54269;SDS011;40181;51.560;13.000;2023-05-07T04:58:45;4.03;;;2.85;;
54269;SDS011;40181;51.560;13.000;2023-05-07T05:01:14;3.10;;;2.38;;
54269;SDS011;40181;51.560;13.000;2023-05-07T05:03:43;3.22;;;2.25;;
54269;SDS011;40181;51.560;13.000;2023-05-07T05:06:12;3.97;;;3.10;;
54269;SDS011;40181;51.560;13.000;2023-05-07T05:08:41;2.42;;;1.98;;
54269;SDS011;40181;51.560;13.000;2023-05-07T05:11:10;3.78;;;2.15;;
54269;SDS011;40181;51.560;13.000;2023-05-07T05:13:42;4.32;;;2.42;;
54269;SDS011;40181;51.560;13.000;2023-05-07T05:16:13;3.72;;;2.83;;
54269;SDS011;40181;51.560;13.000;2023-05-07T05:18:42;2.80;;;2.13;;
54269;SDS011;40181;51.560;13.000;2023-05-07T05:21:11;4.07;;;2.60;;
54269;SDS011;40181;51.560;13.000;2023-05-07T05:23:40;3.33;;;2.70;;
54269;SDS011;40181;51.560;13.000;2023-05-07T05:26:10;3.35;;;2.50;;
54269;SDS011;40181;51.560;13.000;2023-05-07T05:28:41;4.18;;;2.47;;
54269;SDS011;40181;51.560;13.000;2023-05-07T05:31:11;2.10;;;1.80;;
54269;SDS011;40181;51.560;13.000;2023-05-07T05:33:40;2.65;;;2.20;;
54269;SDS011;40181;51.560;13.000;2023-05-07T05:36:09;3.50;;;2.65;;
54269;SDS011;40181;51.560;13.000;2023-05-07T05:38:39;3.03;;;2.10;;
54269;SDS011;40181;51.560;13.000;2023-05-07T05:41:08;3.72;;;2.30;;
54269;SDS011;40181;51.560;13.000;2023-05-07T05:43:38;5.60;;;2.20;;
54269;SDS011;40181;51.560;13.000;2023-05-07T05:46:09;4.72;;;2.88;;
54269;SDS011;40181;51.560;13.000;2023-05-07T05:48:38;3.50;;;2.72;;
54269;SDS011;40181;51.560;13.000;2023-05-07T05:51:07;2.88;;;2.28;;
54269;SDS011;40181;51.560;13.000;2023-05-07T05:53:36;3.75;;;2.70;;
54269;SDS011;40181;51.560;13.000;2023-05-07T05:56:06;2.75;;;2.20;;
54269;SDS011;40181;51.560;13.000;2023-05-07T05:58:35;4.97;;;2.63;;
54269;SDS011;40181;51.560;13.000;2023-05-07T06:01:07;3.42;;;2.45;;
54269;SDS011;40181;51.560;13.000;2023-05-07T06:03:37;3.50;;;3.03;;
54269;SDS011;40181;51.560;13.000;2023-05-07T06:06:06;3.05;;;2.47;;
54269;SDS011;40181;51.560;13.000;2023-05-07T06:08:35;3.92;;;2.50;;
54269;SDS011;40181;51.560;13.000;2023-05-07T06:11:04;3.28;;;2.72;;
54269;SDS011;40181;51.560;13.000;2023-05-07T06:13:36;2.90;;;2.35;;
54269;SDS011;40181;51.560;13.000;2023-05-07T06:16:08;4.68;;;3.38;;
54269;SDS011;40181;51.560;13.000;2023-05-07T06:18:37;2.70;;;2.40;;
54269;SDS011;40181;51.560;13.000;2023-05-07T06:21:06;3.80;;;3.25;;
54269;SDS011;40181;51.560;13.000;2023-05-07T06:23:35;4.55;;;3.00;;
54269;SDS011;40181;51.560;13.000;2023-05-07T06:26:05;2.65;;;2.35;;
54269;SDS011;40181;51.560;13.000;2023-05-07T06:28:35;3.92;;;2.90;;
54269;SDS011;40181;51.560;13.000;2023-05-07T06:31:16;4.85;;;3.83;;
54269;SDS011;40181;51.560;13.000;2023-05-07T06:33:48;3.55;;;2.90;;
54269;SDS011;40181;51.560;13.000;2023-05-07T06:36:18;5.35;;;2.92;;
54269;SDS011;40181;51.560;13.000;2023-05-07T06:38:47;5.03;;;3.78;;
54269;SDS011;40181;51.560;13.000;2023-05-07T06:41:16;4.78;;;2.80;;
54269;SDS011;40181;51.560;13.000;2023-05-07T06:43:45;5.28;;;3.63;;
54269;SDS011;40181;51.560;13.000;2023-05-07T06:46:17;4.03;;;3.20;;
54269;SDS011;40181;51.560;13.000;2023-05-07T06:48:46;3.35;;;2.63;;
54269;SDS011;40181;51.560;13.000;2023-05-07T06:51:15;3.42;;;2.75;;
54269;SDS011;40181;51.560;13.000;2023-05-07T06:53:44;4.18;;;2.88;;
54269;SDS011;40181;51.560;13.000;2023-05-07T06:56:13;5.65;;;3.78;;
54269;SDS011;40181;51.560;13.000;2023-05-07T06:58:42;4.07;;;2.90;;
54269;SDS011;40181;51.560;13.000;2023-05-07T07:01:11;3.92;;;3.30;;
54269;SDS011;40181;51.560;13.000;2023-05-07T07:03:42;4.82;;;3.40;;
54269;SDS011;40181;51.560;13.000;2023-05-07T07:06:11;4.88;;;3.95;;
54269;SDS011;40181;51.560;13.000;2023-05-07T07:08:41;5.82;;;3.78;;
54269;SDS011;40181;51.560;13.000;2023-05-07T07:11:10;5.10;;;3.67;;
54269;SDS011;40181;51.560;13.000;2023-05-07T07:13:39;5.10;;;4.00;;
54269;SDS011;40181;51.560;13.000;2023-05-07T07:16:08;6.32;;;3.63;;
54269;SDS011;40181;51.560;13.000;2023-05-07T07:18:38;6.05;;;4.47;;
54269;SDS011;40181;51.560;13.000;2023-05-07T07:21:09;5.20;;;3.83;;
54269;SDS011;40181;51.560;13.000;2023-05-07T07:23:38;6.60;;;4.20;;
54269;SDS011;40181;51.560;13.000;2023-05-07T07:26:07;5.28;;;4.45;;
54269;SDS011;40181;51.560;13.000;2023-05-07T07:28:41;4.70;;;3.58;;
54269;SDS011;40181;51.560;13.000;2023-05-07T07:31:11;3.92;;;3.20;;
54269;SDS011;40181;51.560;13.000;2023-05-07T07:33:40;6.07;;;4.63;;
54269;SDS011;40181;51.560;13.000;2023-05-07T07:36:12;3.80;;;3.08;;
54269;SDS011;40181;51.560;13.000;2023-05-07T07:38:41;5.30;;;4.47;;
54269;SDS011;40181;51.560;13.000;2023-05-07T07:41:10;5.63;;;4.75;;
54269;SDS011;40181;51.560;13.000;2023-05-07T07:43:39;7.65;;;4.30;;
54269;SDS011;40181;51.560;13.000;2023-05-07T07:46:08;6.70;;;4.95;;
54269;SDS011;40181;51.560;13.000;2023-05-07T07:48:37;6.05;;;4.38;;
54269;SDS011;40181;51.560;13.000;2023-05-07T07:51:06;6.90;;;4.95;;
54269;SDS011;40181;51.560;13.000;2023-05-07T07:53:38;4.43;;;3.60;;
54269;SDS011;40181;51.560;13.000;2023-05-07T07:56:07;11.30;;;4.25;;
54269;SDS011;40181;51.560;13.000;2023-05-07T07:58:36;5.78;;;4.10;;
54269;SDS011;40181;51.560;13.000;2023-05-07T08:01:05;4.00;;;3.38;;
54269;SDS011;40181;51.560;13.000;2023-05-07T08:03:35;4.80;;;4.07;;
54269;SDS011;40181;51.560;13.000;2023-05-07T08:06:04;4.70;;;4.00;;
54269;SDS011;40181;51.560;13.000;2023-05-07T08:08:33;5.35;;;4.70;;
54269;SDS011;40181;51.560;13.000;2023-05-07T08:11:05;5.13;;;3.90;;
54269;SDS011;40181;51.560;13.000;2023-05-07T08:13:34;5.22;;;4.28;;
54269;SDS011;40181;51.560;13.000;2023-05-07T08:16:03;5.10;;;4.40;;
54269;SDS011;40181;51.560;13.000;2023-05-07T08:18:33;6.47;;;4.22;;
54269;SDS011;40181;51.560;13.000;2023-05-07T08:21:02;6.30;;;4.00;;
54269;SDS011;40181;51.560;13.000;2023-05-07T08:23:31;5.65;;;3.30;;
54269;SDS011;40181;51.560;13.000;2023-05-07T08:26:01;6.05;;;3.88;;
54269;SDS011;40181;51.560;13.000;2023-05-07T08:28:32;4.47;;;3.05;;
54269;SDS011;40181;51.560;13.000;2023-05-07T08:31:01;8.48;;;5.15;;
54269;SDS011;40181;51.560;13.000;2023-05-07T08:33:31;5.20;;;3.92;;
54269;SDS011;40181;51.560;13.000;2023-05-07T08:36:00;4.38;;;3.78;;
54269;SDS011;40181;51.560;13.000;2023-05-07T08:38:29;5.07;;;4.45;;
54269;SDS011;40181;51.560;13.000;2023-05-07T08:40:58;5.35;;;3.67;;
54269;SDS011;40181;51.560;13.000;2023-05-07T08:43:30;4.55;;;3.67;;
54269;SDS011;40181;51.560;13.000;2023-05-07T08:46:01;10.98;;;5.00;;
54269;SDS011;40181;51.560;13.000;2023-05-07T08:48:32;4.72;;;4.00;;
54269;SDS011;40181;51.560;13.000;2023-05-07T08:51:01;5.30;;;4.15;;
54269;SDS011;40181;51.560;13.000;2023-05-07T08:53:31;4.97;;;3.17;;
54269;SDS011;40181;51.560;13.000;2023-05-07T08:56:00;4.85;;;3.83;;
54269;SDS011;40181;51.560;13.000;2023-05-07T08:58:33;5.75;;;3.90;;
54269;SDS011;40181;51.560;13.000;2023-05-07T09:01:03;5.72;;;3.95;;
54269;SDS011;40181;51.560;13.000;2023-05-07T09:03:37;6.20;;;4.85;;
54269;SDS011;40181;51.560;13.000;2023-05-07T09:06:06;5.10;;;4.53;;
54269;SDS011;40181;51.560;13.000;2023-05-07T09:08:36;7.18;;;4.10;;
54269;SDS011;40181;51.560;13.000;2023-05-07T09:11:05;4.95;;;3.92;;
54269;SDS011;40181;51.560;13.000;2023-05-07T09:13:37;4.40;;;3.07;;
54269;SDS011;40181;51.560;13.000;2023-05-07T09:16:12;5.88;;;3.67;;
54269;SDS011;40181;51.560;13.000;2023-05-07T09:18:42;9.15;;;3.83;;
54269;SDS011;40181;51.560;13.000;2023-05-07T09:21:14;4.07;;;3.17;;
54269;SDS011;40181;51.560;13.000;2023-05-07T09:23:43;3.55;;;2.97;;
54269;SDS011;40181;51.560;13.000;2023-05-07T09:26:13;4.22;;;3.05;;
54269;SDS011;40181;51.560;13.000;2023-05-07T09:28:45;4.45;;;3.70;;
54269;SDS011;40181;51.560;13.000;2023-05-07T09:31:14;6.00;;;4.25;;
54269;SDS011;40181;51.560;13.000;2023-05-07T09:33:43;5.13;;;4.32;;
54269;SDS011;40181;51.560;13.000;2023-05-07T09:36:12;5.25;;;3.80;;
54269;SDS011;40181;51.560;13.000;2023-05-07T09:38:43;4.88;;;3.58;;
54269;SDS011;40181;51.560;13.000;2023-05-07T09:41:14;6.03;;;3.53;;
54269;SDS011;40181;51.560;13.000;2023-05-07T09:43:46;5.65;;;3.88;;
54269;SDS011;40181;51.560;13.000;2023-05-07T09:46:24;4.28;;;3.10;;
54269;SDS011;40181;51.560;13.000;2023-05-07T09:48:57;5.28;;;3.80;;
54269;SDS011;40181;51.560;13.000;2023-05-07T09:51:30;5.88;;;3.88;;
54269;SDS011;40181;51.560;13.000;2023-05-07T09:54:09;5.70;;;3.15;;
54269;SDS011;40181;51.560;13.000;2023-05-07T09:56:39;4.55;;;3.90;;
54269;SDS011;40181;51.560;13.000;2023-05-07T09:59:12;5.18;;;3.75;;
54269;SDS011;40181;51.560;13.000;2023-05-07T10:01:43;6.07;;;3.92;;
54269;SDS011;40181;51.560;13.000;2023-05-07T10:04:13;5.25;;;4.40;;
54269;SDS011;40181;51.560;13.000;2023-05-07T10:06:43;6.07;;;3.83;;
54269;SDS011;40181;51.560;13.000;2023-05-07T10:09:13;5.47;;;3.20;;
54269;SDS011;40181;51.560;13.000;2023-05-07T10:11:43;4.43;;;3.35;;
54269;SDS011;40181;51.560;13.000;2023-05-07T10:14:15;5.07;;;3.67;;
54269;SDS011;40181;51.560;13.000;2023-05-07T10:16:45;6.93;;;4.25;;
54269;SDS011;40181;51.560;13.000;2023-05-07T10:21:48;6.05;;;5.18;;
54269;SDS011;40181;51.560;13.000;2023-05-07T10:24:25;5.28;;;4.22;;
54269;SDS011;40181;51.560;13.000;2023-05-07T10:26:57;6.28;;;5.28;;
54269;SDS011;40181;51.560;13.000;2023-05-07T10:29:33;8.18;;;6.28;;
54269;SDS011;40181;51.560;13.000;2023-05-07T10:32:14;6.68;;;5.15;;
54269;SDS011;40181;51.560;13.000;2023-05-07T10:34:58;6.43;;;4.85;;
54269;SDS011;40181;51.560;13.000;2023-05-07T10:37:31;5.78;;;4.60;;
54269;SDS011;40181;51.560;13.000;2023-05-07T10:40:01;6.82;;;5.25;;
54269;SDS011;40181;51.560;13.000;2023-05-07T10:42:32;5.35;;;4.68;;
54269;SDS011;40181;51.560;13.000;2023-05-07T10:45:14;7.38;;;4.30;;
54269;SDS011;40181;51.560;13.000;2023-05-07T10:50:38;6.35;;;4.05;;
54269;SDS011;40181;51.560;13.000;2023-05-07T10:56:23;6.07;;;3.53;;
54269;SDS011;40181;51.560;13.000;2023-05-07T11:02:09;4.22;;;3.03;;
54269;SDS011;40181;51.560;13.000;2023-05-07T11:04:40;6.32;;;4.18;;
54269;SDS011;40181;51.560;13.000;2023-05-07T11:10:00;4.32;;;3.10;;
54269;SDS011;40181;51.560;13.000;2023-05-07T11:12:48;4.93;;;3.33;;
54269;SDS011;40181;51.560;13.000;2023-05-07T11:18:14;6.70;;;4.03;;
54269;SDS011;40181;51.560;13.000;2023-05-07T11:20:46;4.82;;;3.22;;
54269;SDS011;40181;51.560;13.000;2023-05-07T11:26:27;3.75;;;2.97;;
54269;SDS011;40181;51.560;13.000;2023-05-07T11:28:58;3.50;;;2.70;;
54269;SDS011;40181;51.560;13.000;2023-05-07T11:31:29;5.43;;;3.85;;
54269;SDS011;40181;51.560;13.000;2023-05-07T11:34:01;3.88;;;3.30;;
54269;SDS011;40181;51.560;13.000;2023-05-07T11:36:30;4.40;;;3.15;;
54269;SDS011;40181;51.560;13.000;2023-05-07T11:39:01;5.30;;;3.15;;
54269;SDS011;40181;51.560;13.000;2023-05-07T11:41:33;4.72;;;2.63;;
54269;SDS011;40181;51.560;13.000;2023-05-07T11:44:03;4.75;;;3.42;;
54269;SDS011;40181;51.560;13.000;2023-05-07T11:46:32;4.13;;;2.63;;
54269;SDS011;40181;51.560;13.000;2023-05-07T11:49:04;3.03;;;2.38;;
54269;SDS011;40181;51.560;13.000;2023-05-07T11:51:34;3.80;;;2.50;;
54269;SDS011;40181;51.560;13.000;2023-05-07T11:54:04;3.35;;;2.60;;
54269;SDS011;40181;51.560;13.000;2023-05-07T11:56:36;3.08;;;2.47;;
54269;SDS011;40181;51.560;13.000;2023-05-07T11:59:06;4.53;;;2.63;;
54269;SDS011;40181;51.560;13.000;2023-05-07T12:01:35;3.47;;;2.20;;
54269;SDS011;40181;51.560;13.000;2023-05-07T12:04:07;3.42;;;2.40;;
54269;SDS011;40181;51.560;13.000;2023-05-07T12:06:36;3.53;;;2.58;;
54269;SDS011;40181;51.560;13.000;2023-05-07T12:09:06;2.25;;;1.85;;
54269;SDS011;40181;51.560;13.000;2023-05-07T12:11:36;3.00;;;1.77;;
54269;SDS011;40181;51.560;13.000;2023-05-07T12:16:36;2.17;;;1.73;;
54269;SDS011;40181;51.560;13.000;2023-05-07T12:19:08;2.65;;;1.95;;
54269;SDS011;40181;51.560;13.000;2023-05-07T12:21:38;4.25;;;2.47;;
54269;SDS011;40181;51.560;13.000;2023-05-07T12:24:08;5.28;;;3.13;;
54269;SDS011;40181;51.560;13.000;2023-05-07T12:26:37;1.75;;;1.55;;
54269;SDS011;40181;51.560;13.000;2023-05-07T12:29:07;3.22;;;2.40;;
54269;SDS011;40181;51.560;13.000;2023-05-07T12:31:36;5.05;;;2.40;;
54269;SDS011;40181;51.560;13.000;2023-05-07T12:34:13;4.63;;;2.85;;
54269;SDS011;40181;51.560;13.000;2023-05-07T12:36:42;2.47;;;1.80;;
54269;SDS011;40181;51.560;13.000;2023-05-07T12:39:11;2.92;;;1.90;;
54269;SDS011;40181;51.560;13.000;2023-05-07T12:41:52;2.63;;;2.00;;
54269;SDS011;40181;51.560;13.000;2023-05-07T12:44:23;3.10;;;2.10;;
54269;SDS011;40181;51.560;13.000;2023-05-07T12:46:52;2.13;;;1.63;;
54269;SDS011;40181;51.560;13.000;2023-05-07T12:49:24;2.45;;;1.60;;
54269;SDS011;40181;51.560;13.000;2023-05-07T12:51:53;2.70;;;1.75;;
54269;SDS011;40181;51.560;13.000;2023-05-07T12:54:29;2.20;;;1.58;;
54269;SDS011;40181;51.560;13.000;2023-05-07T12:57:02;2.65;;;1.65;;
54269;SDS011;40181;51.560;13.000;2023-05-07T12:59:32;2.42;;;1.90;;
54269;SDS011;40181;51.560;13.000;2023-05-07T13:02:03;3.92;;;1.90;;
54269;SDS011;40181;51.560;13.000;2023-05-07T13:04:35;2.55;;;1.65;;
54269;SDS011;40181;51.560;13.000;2023-05-07T13:07:04;2.25;;;1.60;;
54269;SDS011;40181;51.560;13.000;2023-05-07T13:09:33;1.70;;;1.38;;
54269;SDS011;40181;51.560;13.000;2023-05-07T13:12:03;1.95;;;1.45;;
54269;SDS011;40181;51.560;13.000;2023-05-07T13:14:32;1.88;;;1.42;;
54269;SDS011;40181;51.560;13.000;2023-05-07T13:17:01;2.38;;;1.30;;
54269;SDS011;40181;51.560;13.000;2023-05-07T13:19:30;1.60;;;1.17;;
54269;SDS011;40181;51.560;13.000;2023-05-07T13:22:02;4.07;;;1.65;;
54269;SDS011;40181;51.560;13.000;2023-05-07T13:24:31;2.08;;;1.50;;
54269;SDS011;40181;51.560;13.000;2023-05-07T13:27:00;5.07;;;1.70;;
54269;SDS011;40181;51.560;13.000;2023-05-07T13:29:29;2.83;;;1.52;;
54269;SDS011;40181;51.560;13.000;2023-05-07T13:31:58;1.88;;;1.33;;
54269;SDS011;40181;51.560;13.000;2023-05-07T13:34:27;2.63;;;1.83;;
54269;SDS011;40181;51.560;13.000;2023-05-07T13:36:56;2.08;;;1.52;;
54269;SDS011;40181;51.560;13.000;2023-05-07T13:39:28;1.85;;;1.30;;
54269;SDS011;40181;51.560;13.000;2023-05-07T13:41:57;2.08;;;1.45;;
54269;SDS011;40181;51.560;13.000;2023-05-07T13:44:26;2.47;;;1.75;;
54269;SDS011;40181;51.560;13.000;2023-05-07T13:46:55;2.92;;;1.77;;
54269;SDS011;40181;51.560;13.000;2023-05-07T13:49:25;2.30;;;1.40;;
54269;SDS011;40181;51.560;13.000;2023-05-07T13:51:54;2.40;;;1.50;;
54269;SDS011;40181;51.560;13.000;2023-05-07T13:54:23;1.92;;;1.55;;
54269;SDS011;40181;51.560;13.000;2023-05-07T13:56:55;3.33;;;2.15;;
54269;SDS011;40181;51.560;13.000;2023-05-07T13:59:24;5.88;;;3.45;;
54269;SDS011;40181;51.560;13.000;2023-05-07T14:01:53;3.28;;;2.58;;
54269;SDS011;40181;51.560;13.000;2023-05-07T14:04:22;3.75;;;3.33;;
54269;SDS011;40181;51.560;13.000;2023-05-07T14:06:51;3.50;;;2.53;;
54269;SDS011;40181;51.560;13.000;2023-05-07T14:09:20;3.97;;;2.78;;
54269;SDS011;40181;51.560;13.000;2023-05-07T14:11:50;2.35;;;2.05;;
54269;SDS011;40181;51.560;13.000;2023-05-07T14:14:21;2.45;;;1.88;;
54269;SDS011;40181;51.560;13.000;2023-05-07T14:16:50;1.70;;;1.55;;
54269;SDS011;40181;51.560;13.000;2023-05-07T14:19:19;3.28;;;2.60;;
54269;SDS011;40181;51.560;13.000;2023-05-07T14:21:49;4.07;;;2.40;;
54269;SDS011;40181;51.560;13.000;2023-05-07T14:24:18;3.35;;;2.72;;
54269;SDS011;40181;51.560;13.000;2023-05-07T14:26:47;3.45;;;2.30;;
54269;SDS011;40181;51.560;13.000;2023-05-07T14:29:16;2.58;;;2.22;;
54269;SDS011;40181;51.560;13.000;2023-05-07T14:31:49;3.30;;;2.63;;
54269;SDS011;40181;51.560;13.000;2023-05-07T14:34:18;3.13;;;2.15;;
54269;SDS011;40181;51.560;13.000;2023-05-07T14:36:47;3.63;;;2.50;;
54269;SDS011;40181;51.560;13.000;2023-05-07T14:39:17;3.33;;;2.42;;
54269;SDS011;40181;51.560;13.000;2023-05-07T14:41:49;4.10;;;2.90;;
54269;SDS011;40181;51.560;13.000;2023-05-07T14:44:19;3.28;;;2.00;;
54269;SDS011;40181;51.560;13.000;2023-05-07T14:46:51;4.50;;;2.05;;
54269;SDS011;40181;51.560;13.000;2023-05-07T14:49:20;2.55;;;2.05;;
54269;SDS011;40181;51.560;13.000;2023-05-07T14:51:49;5.90;;;3.00;;
54269;SDS011;40181;51.560;13.000;2023-05-07T14:54:18;5.50;;;2.75;;
54269;SDS011;40181;51.560;13.000;2023-05-07T14:56:47;2.67;;;1.75;;
54269;SDS011;40181;51.560;13.000;2023-05-07T14:59:16;3.45;;;2.80;;
54269;SDS011;40181;51.560;13.000;2023-05-07T15:01:46;3.28;;;2.65;;
54269;SDS011;40181;51.560;13.000;2023-05-07T15:04:18;3.50;;;2.50;;
54269;SDS011;40181;51.560;13.000;2023-05-07T15:06:47;6.82;;;2.58;;
54269;SDS011;40181;51.560;13.000;2023-05-07T15:09:17;3.75;;;2.22;;
54269;SDS011;40181;51.560;13.000;2023-05-07T15:11:46;3.90;;;2.53;;
54269;SDS011;40181;51.560;13.000;2023-05-07T15:14:15;3.60;;;2.80;;
54269;SDS011;40181;51.560;13.000;2023-05-07T15:16:44;5.43;;;3.67;;